createdAt,value
2023-05-17T00:01:05.021Z,6.80
2023-05-17T00:03:33.325Z,6.80
2023-05-17T00:06:03.071Z,6.70
2023-05-17T00:08:31.870Z,6.70
2023-05-17T00:11:00.400Z,6.70
2023-05-17T00:13:28.608Z,6.60
2023-05-17T00:15:56.906Z,6.60
2023-05-17T00:18:25.378Z,6.60
2023-05-17T00:20:53.777Z,6.50
2023-05-17T00:23:24.282Z,6.50
2023-05-17T00:25:52.617Z,6.50
2023-05-17T00:28:20.933Z,6.40
2023-05-17T00:30:49.330Z,6.40
2023-05-17T00:33:17.706Z,6.40
2023-05-17T00:35:46.140Z,6.30
2023-05-17T00:38:14.369Z,6.40
2023-05-17T00:40:44.191Z,6.40
2023-05-17T00:43:12.520Z,6.40
2023-05-17T00:45:40.983Z,6.40
2023-05-17T00:48:09.494Z,6.40
2023-05-17T00:50:38.260Z,6.40
2023-05-17T00:53:06.593Z,6.40
2023-05-17T00:55:35.236Z,6.40
2023-05-17T00:58:05.136Z,6.40
2023-05-17T01:00:33.766Z,6.50
2023-05-17T01:03:02.587Z,6.50
2023-05-17T01:05:31.491Z,6.40
2023-05-17T01:07:59.840Z,6.40
2023-05-17T01:10:42.505Z,6.30
2023-05-17T01:13:19.677Z,6.30
2023-05-17T01:15:51.855Z,6.30
2023-05-17T01:18:27.250Z,6.20
2023-05-17T01:20:59.809Z,6.20
2023-05-17T01:23:38.099Z,6.10
2023-05-17T01:26:11.807Z,6.10
2023-05-17T01:28:42.772Z,6.00
2023-05-17T01:31:13.706Z,6.00
2023-05-17T01:33:42.339Z,5.90
2023-05-17T01:36:10.814Z,5.90
2023-05-17T01:38:39.086Z,5.90
2023-05-17T01:41:17.139Z,5.90
2023-05-17T01:43:50.934Z,5.90
2023-05-17T01:46:28.442Z,5.80
2023-05-17T01:49:14.735Z,5.80
2023-05-17T01:51:48.567Z,5.80
2023-05-17T01:54:22.763Z,5.80
2023-05-17T01:56:57.143Z,5.70
2023-05-17T01:59:27.802Z,5.70
2023-05-17T02:02:03.830Z,5.70
2023-05-17T02:04:32.656Z,5.70
2023-05-17T02:07:03.508Z,5.70
2023-05-17T02:09:32.689Z,5.70
2023-05-17T02:12:01.378Z,5.60
2023-05-17T02:14:31.138Z,5.60
2023-05-17T02:16:59.958Z,5.60
2023-05-17T02:19:28.308Z,5.60
2023-05-17T02:21:56.824Z,5.50
2023-05-17T02:24:25.266Z,5.50
2023-05-17T02:26:53.593Z,5.50
2023-05-17T02:29:21.860Z,5.50
2023-05-17T02:31:51.583Z,5.40
2023-05-17T02:34:19.940Z,5.40
2023-05-17T02:36:51.580Z,5.40
2023-05-17T02:39:20.107Z,5.40
2023-05-17T02:41:48.457Z,5.40
2023-05-17T02:44:16.839Z,5.40
2023-05-17T02:46:45.165Z,5.40
2023-05-17T02:49:15.765Z,5.40
2023-05-17T02:51:44.172Z,5.40
2023-05-17T02:54:12.711Z,5.40
2023-05-17T02:56:41.181Z,5.40
2023-05-17T02:59:09.806Z,5.40
2023-05-17T03:01:40.202Z,5.30
2023-05-17T03:04:08.787Z,5.40
2023-05-17T03:06:39.117Z,5.30
2023-05-17T03:09:08.014Z,5.30
2023-05-17T03:11:36.713Z,5.30
2023-05-17T03:14:09.904Z,5.30
2023-05-17T03:16:38.498Z,5.30
2023-05-17T03:19:07.768Z,5.40
2023-05-17T03:21:36.272Z,5.40
2023-05-17T03:24:06.913Z,5.40
2023-05-17T03:26:36.481Z,5.40
2023-05-17T03:29:05.332Z,5.40
2023-05-17T03:31:34.234Z,5.40
2023-05-17T03:34:03.027Z,5.30
2023-05-17T03:36:34.108Z,5.30
2023-05-17T03:39:02.615Z,5.30
2023-05-17T03:41:32.808Z,5.30
2023-05-17T03:44:01.959Z,5.30
2023-05-17T03:46:30.624Z,5.30
2023-05-17T03:48:59.861Z,5.30
2023-05-17T03:51:28.557Z,5.30
2023-05-17T03:54:01.146Z,5.20
2023-05-17T03:56:32.540Z,5.30
2023-05-17T03:59:00.940Z,5.30
2023-05-17T04:01:29.394Z,5.30
2023-05-17T04:03:57.753Z,5.30
2023-05-17T04:06:27.222Z,5.30
2023-05-17T04:08:55.846Z,5.30
2023-05-17T04:11:26.722Z,5.30
2023-05-17T04:13:57.659Z,5.30
2023-05-17T04:16:26.397Z,5.30
2023-05-17T04:18:57.178Z,5.20
2023-05-17T04:21:25.908Z,5.20
2023-05-17T04:23:54.675Z,5.20
2023-05-17T04:26:23.102Z,5.20
2023-05-17T04:28:51.869Z,5.20
2023-05-17T04:31:22.318Z,5.30
2023-05-17T04:33:50.937Z,5.40
2023-05-17T04:36:19.360Z,5.40
2023-05-17T04:38:47.828Z,5.50
2023-05-17T04:41:19.856Z,5.60
2023-05-17T04:43:49.511Z,5.70
2023-05-17T04:46:25.620Z,5.70
2023-05-17T04:48:56.175Z,5.80
2023-05-17T04:51:26.935Z,5.90
2023-05-17T04:53:55.454Z,6.00
2023-05-17T04:56:24.038Z,6.10
2023-05-17T04:58:53.323Z,6.20
2023-05-17T05:01:22.161Z,6.30
2023-05-17T05:03:53.303Z,6.40
2023-05-17T05:06:22.342Z,6.50
2023-05-17T05:08:51.032Z,6.60
2023-05-17T05:11:19.459Z,6.80
2023-05-17T05:13:47.914Z,6.90
2023-05-17T05:16:16.681Z,7.00
2023-05-17T05:18:46.321Z,7.10
2023-05-17T05:21:16.193Z,7.20
2023-05-17T05:23:45.115Z,7.40
2023-05-17T05:26:14.587Z,7.50
2023-05-17T05:28:43.421Z,7.60
2023-05-17T05:31:12.830Z,7.80
2023-05-17T05:33:47.082Z,8.10
2023-05-17T05:36:17.094Z,8.60
2023-05-17T05:38:45.461Z,9.10
2023-05-17T05:41:13.946Z,9.50
2023-05-17T05:43:42.862Z,9.90
2023-05-17T05:46:11.247Z,10.20
2023-05-17T05:48:41.873Z,10.20
2023-05-17T05:51:10.826Z,10.20
2023-05-17T05:53:43.545Z,10.30
2023-05-17T05:56:12.081Z,10.70
2023-05-17T05:58:40.437Z,11.40
2023-05-17T06:01:10.273Z,12.10
2023-05-17T06:03:38.759Z,12.80
2023-05-17T06:06:07.622Z,13.40
2023-05-17T06:08:36.011Z,13.90
2023-05-17T06:11:05.918Z,14.10
2023-05-17T06:13:34.237Z,13.90
2023-05-17T06:16:02.654Z,13.60
2023-05-17T06:18:31.026Z,13.30
2023-05-17T06:20:59.558Z,13.10
2023-05-17T06:23:27.918Z,12.80
2023-05-17T06:25:56.403Z,12.50
2023-05-17T06:28:26.222Z,12.20
2023-05-17T06:30:54.712Z,12.10
2023-05-17T06:33:23.134Z,12.10
2023-05-17T06:35:57.177Z,12.10
2023-05-17T06:38:26.769Z,12.00
2023-05-17T06:40:55.695Z,12.10
2023-05-17T06:43:25.654Z,12.10
2023-05-17T06:45:54.129Z,12.10
2023-05-17T06:48:22.524Z,12.10
2023-05-17T06:50:51.044Z,12.20
2023-05-17T06:53:19.393Z,12.40
2023-05-17T06:55:47.854Z,12.60
2023-05-17T06:58:16.260Z,12.60
2023-05-17T07:00:46.199Z,12.60
2023-05-17T07:03:14.616Z,12.60
2023-05-17T07:05:43.139Z,12.60
2023-05-17T07:08:11.482Z,12.60
2023-05-17T07:10:39.829Z,12.50
2023-05-17T07:13:08.379Z,12.40
2023-05-17T07:15:36.831Z,12.50
2023-05-17T07:18:06.758Z,12.40
2023-05-17T07:20:35.440Z,12.40
2023-05-17T07:23:03.734Z,12.50
2023-05-17T07:25:32.774Z,12.50
2023-05-17T07:28:01.213Z,12.50
2023-05-17T07:30:29.768Z,12.50
2023-05-17T07:32:58.207Z,12.50
2023-05-17T07:35:28.208Z,12.50
2023-05-17T07:37:56.716Z,12.50
2023-05-17T07:40:25.373Z,12.60
2023-05-17T07:42:53.938Z,12.90
2023-05-17T07:45:22.623Z,13.20
2023-05-17T07:47:51.140Z,13.20
2023-05-17T07:50:19.817Z,13.20
2023-05-17T07:52:49.399Z,13.10
2023-05-17T07:55:17.872Z,12.90
2023-05-17T07:57:47.298Z,12.70
2023-05-17T08:00:19.136Z,13.10
2023-05-17T08:02:47.551Z,13.70
2023-05-17T08:05:15.862Z,14.30
2023-05-17T08:07:44.195Z,14.80
2023-05-17T08:10:13.908Z,15.30
2023-05-17T08:12:42.306Z,15.70
2023-05-17T08:15:11.249Z,15.70
2023-05-17T08:17:39.556Z,15.70
2023-05-17T08:20:09.536Z,15.30
2023-05-17T08:22:38.148Z,15.00
2023-05-17T08:25:07.392Z,14.80
2023-05-17T08:27:36.917Z,14.50
2023-05-17T08:30:09.134Z,14.30
2023-05-17T08:32:40.053Z,13.90
2023-05-17T08:35:08.864Z,13.60
2023-05-17T08:37:37.178Z,13.50
2023-05-17T08:40:06.280Z,13.40
2023-05-17T08:42:37.690Z,13.40
2023-05-17T08:45:08.433Z,13.40
2023-05-17T08:47:37.727Z,13.50
2023-05-17T08:50:07.688Z,13.80
2023-05-17T08:52:38.474Z,14.50
2023-05-17T08:55:08.883Z,15.20
2023-05-17T08:57:40.381Z,15.50
2023-05-17T09:00:14.433Z,15.50
2023-05-17T09:02:43.876Z,15.30
2023-05-17T09:05:14.111Z,15.20
2023-05-17T09:07:43.294Z,15.20
2023-05-17T09:10:13.616Z,15.60
2023-05-17T09:12:43.594Z,16.10
2023-05-17T09:15:19.411Z,16.40
2023-05-17T09:17:53.486Z,16.80
2023-05-17T09:20:25.783Z,17.00
2023-05-17T09:22:54.094Z,17.20
2023-05-17T09:25:24.758Z,17.30
2023-05-17T09:27:55.430Z,17.10
2023-05-17T09:30:29.252Z,16.60
2023-05-17T09:32:58.595Z,16.10
2023-05-17T09:35:30.646Z,15.60
2023-05-17T09:38:07.449Z,15.30
2023-05-17T09:40:40.200Z,15.10
2023-05-17T09:43:12.205Z,15.00
2023-05-17T09:45:41.121Z,15.00
2023-05-17T09:48:14.073Z,15.60
2023-05-17T09:50:47.166Z,15.90
2023-05-17T09:53:27.401Z,16.10
2023-05-17T09:55:58.493Z,16.80
2023-05-17T09:58:29.743Z,17.10
2023-05-17T10:01:00.802Z,17.40
2023-05-17T10:03:33.176Z,17.50
2023-05-17T10:06:03.734Z,17.40
2023-05-17T10:08:33.408Z,17.20
2023-05-17T10:11:06.649Z,16.70
2023-05-17T10:13:40.645Z,16.30
2023-05-17T10:16:09.154Z,16.10
2023-05-17T10:18:40.254Z,16.10
2023-05-17T10:21:09.074Z,16.20
2023-05-17T10:23:38.617Z,16.00
2023-05-17T10:26:07.565Z,15.90
2023-05-17T10:28:38.437Z,15.80
2023-05-17T10:31:07.589Z,15.70
2023-05-17T10:33:36.936Z,15.50
2023-05-17T10:36:07.359Z,15.40
2023-05-17T10:38:42.454Z,15.40
2023-05-17T10:41:12.815Z,15.30
2023-05-17T10:43:44.035Z,15.60
2023-05-17T10:46:17.840Z,16.40
2023-05-17T10:48:48.759Z,17.20
2023-05-17T10:51:23.870Z,17.10
2023-05-17T10:54:09.715Z,16.90
2023-05-17T10:56:42.547Z,16.80
2023-05-17T10:59:22.461Z,16.90
2023-05-17T11:01:58.480Z,17.20
2023-05-17T11:04:29.393Z,17.70
2023-05-17T11:07:27.165Z,18.20
2023-05-17T11:09:57.164Z,18.60
2023-05-17T11:12:35.987Z,18.70
2023-05-17T11:15:10.407Z,18.70
2023-05-17T11:17:51.435Z,19.00
2023-05-17T11:20:36.911Z,19.00
2023-05-17T11:23:07.597Z,18.80
2023-05-17T11:25:37.226Z,19.10
2023-05-17T11:28:10.129Z,19.40
2023-05-17T11:30:51.039Z,19.80
2023-05-17T11:33:33.067Z,20.20
2023-05-17T11:36:06.315Z,20.00
2023-05-17T11:38:34.820Z,19.90
2023-05-17T11:43:50.953Z,18.70
2023-05-17T11:46:23.810Z,18.60
2023-05-17T11:48:53.614Z,19.00
2023-05-17T11:51:25.006Z,19.30
2023-05-17T11:53:55.932Z,19.70
2023-05-17T11:56:35.755Z,19.90
2023-05-17T11:59:12.041Z,20.00
2023-05-17T12:01:46.168Z,20.00
2023-05-17T12:04:15.172Z,19.60
2023-05-17T12:06:45.512Z,19.10
2023-05-17T12:09:17.725Z,18.20
2023-05-17T12:11:47.645Z,18.00
2023-05-17T12:14:17.597Z,18.50
2023-05-17T12:16:51.536Z,19.20
2023-05-17T12:19:21.116Z,19.80
2023-05-17T12:21:49.856Z,20.40
2023-05-17T12:24:18.818Z,20.70
2023-05-17T12:26:48.425Z,21.00
2023-05-17T12:29:22.718Z,20.90
2023-05-17T12:31:54.101Z,20.90
2023-05-17T12:34:23.426Z,20.90
2023-05-17T12:36:53.197Z,20.80
2023-05-17T12:39:24.242Z,20.90
2023-05-17T12:41:53.481Z,21.00
2023-05-17T12:44:22.035Z,20.40
2023-05-17T12:46:53.746Z,19.80
2023-05-17T12:49:24.360Z,19.00
2023-05-17T12:51:52.673Z,18.80
2023-05-17T12:54:29.350Z,19.20
2023-05-17T12:56:57.906Z,19.80
2023-05-17T12:59:28.571Z,20.10
2023-05-17T13:02:00.573Z,20.00
2023-05-17T13:04:33.537Z,20.20
2023-05-17T13:07:03.916Z,20.70
2023-05-17T13:09:34.048Z,21.00
2023-05-17T13:12:04.377Z,20.80
2023-05-17T13:14:37.863Z,20.80
2023-05-17T13:17:09.451Z,21.00
2023-05-17T13:19:38.683Z,21.10
2023-05-17T13:22:07.734Z,21.00
2023-05-17T13:24:37.354Z,21.00
2023-05-17T13:27:06.497Z,21.10
2023-05-17T13:29:39.986Z,21.30
2023-05-17T13:32:11.523Z,21.60
2023-05-17T13:34:40.567Z,21.90
2023-05-17T13:37:11.955Z,21.90
2023-05-17T13:39:41.471Z,21.90
2023-05-17T13:42:10.670Z,21.80
2023-05-17T13:44:39.301Z,21.80
2023-05-17T13:47:09.374Z,22.00
2023-05-17T13:49:37.774Z,22.10
2023-05-17T13:52:08.624Z,22.10
2023-05-17T13:54:38.153Z,21.80
2023-05-17T13:57:07.753Z,21.90
2023-05-17T14:02:46.519Z,21.60
2023-05-17T14:05:15.676Z,21.50
2023-05-17T14:07:44.377Z,21.40
2023-05-17T14:10:13.392Z,21.30
2023-05-17T14:12:42.432Z,21.20
2023-05-17T14:15:11.846Z,21.30
2023-05-17T14:17:40.296Z,21.20
2023-05-17T14:20:11.631Z,21.20
2023-05-17T14:22:40.163Z,21.30
2023-05-17T14:25:11.361Z,21.20
2023-05-17T14:27:39.862Z,21.30
2023-05-17T14:30:10.189Z,21.40
2023-05-17T14:32:40.277Z,21.40
2023-05-17T14:35:10.879Z,21.30
2023-05-17T14:37:39.433Z,21.10
2023-05-17T14:40:08.563Z,21.20
2023-05-17T14:42:37.445Z,21.20
2023-05-17T14:45:07.181Z,21.50
2023-05-17T14:47:36.989Z,21.50
2023-05-17T14:50:07.439Z,21.30
2023-05-17T14:52:37.274Z,21.50
2023-05-17T14:55:06.237Z,21.70
2023-05-17T14:57:34.730Z,21.70
2023-05-17T15:00:09.469Z,21.80
2023-05-17T15:02:38.037Z,21.80
2023-05-17T15:05:06.990Z,21.70
2023-05-17T15:07:37.076Z,21.50
2023-05-17T15:10:06.008Z,21.20
2023-05-17T15:12:35.140Z,20.80
2023-05-17T15:15:03.763Z,20.70
2023-05-17T15:17:32.378Z,20.80
2023-05-17T15:20:00.992Z,20.90
2023-05-17T15:22:29.597Z,21.10
2023-05-17T15:24:59.158Z,21.40
2023-05-17T15:27:27.515Z,21.20
2023-05-17T15:29:56.588Z,21.30
2023-05-17T15:32:25.586Z,21.30
2023-05-17T15:34:54.398Z,21.40
2023-05-17T15:37:22.979Z,21.50
2023-05-17T15:39:51.632Z,21.20
2023-05-17T15:42:23.243Z,21.00
2023-05-17T15:44:53.135Z,21.00
2023-05-17T15:47:23.918Z,21.00
2023-05-17T15:49:57.724Z,21.10
2023-05-17T15:52:26.315Z,21.10
2023-05-17T15:54:54.985Z,21.30
2023-05-17T15:57:24.723Z,21.20
2023-05-17T15:59:53.077Z,21.20
2023-05-17T16:02:22.646Z,21.10
2023-05-17T16:04:51.580Z,20.90
2023-05-17T16:07:20.098Z,20.90
2023-05-17T16:09:49.114Z,20.80
2023-05-17T16:12:17.653Z,21.00
2023-05-17T16:14:47.732Z,21.00
2023-05-17T16:17:18.425Z,20.70
2023-05-17T16:19:47.371Z,20.20
2023-05-17T16:22:16.431Z,20.10
2023-05-17T16:24:44.827Z,20.00
2023-05-17T16:27:13.187Z,20.10
2023-05-17T16:29:41.595Z,20.20
2023-05-17T16:32:11.354Z,20.00
2023-05-17T16:34:39.884Z,20.00
2023-05-17T16:37:08.236Z,20.00
2023-05-17T16:39:36.996Z,19.90
2023-05-17T16:42:05.639Z,19.80
2023-05-17T16:44:34.252Z,19.80
2023-05-17T16:47:02.695Z,19.60
2023-05-17T16:49:32.683Z,19.60
2023-05-17T16:52:01.353Z,19.60
2023-05-17T16:54:29.900Z,19.60
2023-05-17T16:56:58.740Z,19.50
2023-05-17T16:59:27.651Z,19.20
2023-05-17T17:01:56.503Z,19.10
2023-05-17T17:04:25.008Z,19.00
2023-05-17T17:06:54.922Z,18.90
2023-05-17T17:09:23.334Z,19.00
2023-05-17T17:11:51.746Z,19.20
2023-05-17T17:14:21.530Z,18.90
2023-05-17T17:16:50.033Z,18.80
2023-05-17T17:19:18.720Z,18.80
2023-05-17T17:21:47.189Z,18.60
2023-05-17T17:24:16.856Z,18.40
2023-05-17T17:26:46.059Z,18.20
2023-05-17T17:29:14.441Z,18.10
2023-05-17T17:31:42.910Z,17.80
2023-05-17T17:34:11.393Z,17.70
2023-05-17T17:36:39.846Z,17.70
2023-05-17T17:39:08.218Z,17.70
2023-05-17T17:41:37.981Z,17.50
2023-05-17T17:44:06.470Z,17.40
2023-05-17T17:46:34.945Z,17.10
2023-05-17T17:49:03.280Z,16.90
2023-05-17T17:51:32.261Z,16.60
2023-05-17T17:54:00.695Z,16.40
2023-05-17T17:56:29.074Z,16.20
2023-05-17T17:58:59.609Z,16.00
2023-05-17T18:01:29.453Z,15.80
2023-05-17T18:03:57.879Z,15.70
2023-05-17T18:06:26.353Z,15.50
2023-05-17T18:08:54.804Z,15.30
2023-05-17T18:11:23.269Z,15.20
2023-05-17T18:13:51.692Z,15.00
2023-05-17T18:16:21.485Z,14.90
2023-05-17T18:18:49.954Z,14.70
2023-05-17T18:21:18.415Z,14.60
2023-05-17T18:23:46.822Z,14.50
2023-05-17T18:26:15.326Z,14.30
2023-05-17T18:28:43.629Z,14.20
2023-05-17T18:31:13.737Z,14.10
2023-05-17T18:33:43.344Z,14.00
2023-05-17T18:36:11.800Z,13.90
2023-05-17T18:38:40.237Z,13.80
2023-05-17T18:41:08.629Z,13.70
2023-05-17T18:43:37.079Z,13.60
2023-05-17T18:46:05.558Z,13.50
2023-05-17T18:48:36.121Z,13.30
2023-05-17T18:51:06.747Z,13.20
2023-05-17T18:53:35.980Z,13.10
2023-05-17T18:56:04.639Z,13.00
2023-05-17T18:58:33.193Z,12.90
2023-05-17T19:01:02.657Z,12.70
2023-05-17T19:03:32.534Z,12.70
2023-05-17T19:06:01.048Z,12.50
2023-05-17T19:08:30.676Z,12.50
2023-05-17T19:11:01.113Z,12.30
2023-05-17T19:13:29.956Z,12.30
2023-05-17T19:16:00.302Z,12.20
2023-05-17T19:18:28.768Z,12.10
2023-05-17T19:20:57.153Z,12.00
2023-05-17T19:23:25.700Z,11.80
2023-05-17T19:25:57.942Z,11.70
2023-05-17T19:28:26.935Z,11.60
2023-05-17T19:30:55.712Z,11.50
2023-05-17T19:33:24.128Z,11.30
2023-05-17T19:35:52.787Z,11.10
2023-05-17T19:38:21.217Z,11.00
2023-05-17T19:40:49.881Z,10.90
2023-05-17T19:43:19.780Z,10.80
2023-05-17T19:45:48.251Z,10.70
2023-05-17T19:48:17.315Z,10.60
2023-05-17T19:50:46.128Z,10.40
2023-05-17T19:53:14.741Z,10.30
2023-05-17T19:55:43.072Z,10.10
2023-05-17T19:58:11.764Z,10.00
2023-05-17T20:00:41.495Z,9.90
2023-05-17T20:03:09.864Z,9.70
2023-05-17T20:05:38.397Z,9.60
2023-05-17T20:08:08.010Z,9.40
2023-05-17T20:10:36.961Z,9.30
2023-05-17T20:13:05.212Z,9.20
2023-05-17T20:15:33.529Z,9.00
2023-05-17T20:18:05.083Z,8.90
2023-05-17T20:20:33.618Z,8.80
2023-05-17T20:23:01.966Z,8.80
2023-05-17T20:25:30.306Z,8.70
2023-05-17T20:27:58.610Z,8.60
2023-05-17T20:30:27.234Z,8.60
2023-05-17T20:32:55.856Z,8.50
2023-05-17T20:35:27.208Z,8.40
2023-05-17T20:37:56.541Z,8.30
2023-05-17T20:40:24.898Z,8.20
2023-05-17T20:42:53.912Z,8.10
2023-05-17T20:45:22.840Z,8.10
2023-05-17T20:47:52.189Z,8.00
2023-05-17T20:50:21.701Z,8.00
2023-05-17T20:52:51.617Z,7.90
2023-05-17T20:55:20.172Z,7.90
2023-05-17T20:57:48.533Z,7.80
2023-05-17T21:00:18.462Z,7.80
2023-05-17T21:02:47.167Z,7.70
2023-05-17T21:05:15.723Z,7.60
2023-05-17T21:07:46.815Z,7.60
2023-05-17T21:10:17.937Z,7.50
2023-05-17T21:12:46.396Z,7.50
2023-05-17T21:15:17.150Z,7.40
2023-05-17T21:17:59.630Z,7.40
2023-05-17T21:20:27.959Z,7.30
2023-05-17T21:22:56.365Z,7.30
2023-05-17T21:25:25.945Z,7.30
2023-05-17T21:27:54.352Z,7.20
2023-05-17T21:30:23.854Z,7.10
2023-05-17T21:32:52.395Z,7.10
2023-05-17T21:35:20.786Z,7.00
2023-05-17T21:37:49.159Z,6.90
2023-05-17T21:40:17.383Z,6.80
2023-05-17T21:42:47.771Z,6.80
2023-05-17T21:45:16.114Z,6.70
2023-05-17T21:47:44.489Z,6.70
2023-05-17T21:50:12.708Z,6.60
2023-05-17T21:52:41.113Z,6.60
2023-05-17T21:55:09.924Z,6.50
2023-05-17T21:57:38.287Z,6.50
2023-05-17T22:00:12.494Z,6.40
2023-05-17T22:02:41.089Z,6.40
2023-05-17T22:05:09.802Z,6.40
2023-05-17T22:07:38.676Z,6.30
2023-05-17T22:10:09.537Z,6.30
2023-05-17T22:12:38.627Z,6.30
2023-05-17T22:15:09.574Z,6.30
2023-05-17T22:17:47.785Z,6.30
2023-05-17T22:20:22.785Z,6.30
2023-05-17T22:22:51.359Z,6.20
2023-05-17T22:25:19.697Z,6.10
2023-05-17T22:27:48.036Z,6.00
2023-05-17T22:30:17.680Z,6.00
2023-05-17T22:32:46.052Z,5.90
2023-05-17T22:35:14.341Z,5.90
2023-05-17T22:37:43.182Z,5.90
2023-05-17T22:40:11.946Z,5.90
2023-05-17T22:42:42.999Z,5.80
2023-05-17T22:45:12.595Z,5.80
2023-05-17T22:47:43.415Z,5.70
2023-05-17T22:50:14.524Z,5.60
2023-05-17T22:52:42.881Z,5.70
2023-05-17T22:55:11.927Z,5.70
2023-05-17T22:57:40.351Z,5.70
2023-05-17T23:00:11.186Z,5.70
2023-05-17T23:02:39.542Z,5.70
2023-05-17T23:05:11.050Z,5.70
2023-05-17T23:07:41.293Z,5.80
2023-05-17T23:10:11.118Z,5.70
2023-05-17T23:12:40.025Z,5.70
2023-05-17T23:15:09.354Z,5.70
2023-05-17T23:17:38.859Z,5.70
2023-05-17T23:20:10.268Z,5.60
2023-05-17T23:22:39.143Z,5.60
2023-05-17T23:25:08.086Z,5.60
2023-05-17T23:27:37.108Z,5.60
2023-05-17T23:30:06.160Z,5.50
2023-05-17T23:32:34.784Z,5.50
2023-05-17T23:35:04.632Z,5.50
2023-05-17T23:37:36.520Z,5.50
2023-05-17T23:40:06.584Z,5.50
2023-05-17T23:42:35.760Z,5.50
2023-05-17T23:45:04.875Z,5.50
2023-05-17T23:47:33.594Z,5.40
2023-05-17T23:50:03.205Z,5.40
2023-05-17T23:52:32.457Z,5.30
2023-05-17T23:55:03.005Z,5.20
2023-05-17T23:57:31.374Z,5.10
2023-05-17T23:59:59.573Z,5.00
